Aérodrome :
LOGIN :

S'inscrire | Disclaimer

   EN    FR    IT 

 










Légende :    VFR   VFR Marginal   IFR   IFR Intensif   IFR Très Intensif
Visi : 
Plafond : 
>= 8 km
>= 3000ft
5 à 8 km
1000 à 3000 ft
1500m à 5 km
500 à 1000 ft
800 à 1500m
200 à 500 ft
< 800m
< 200 ft
Symboles :   Orages  Brouillard  Fortes neiges  Fortes précipitations  Vent > 20 kt
SIGMETs :   Divers  Orages  Givrage  Turbulence  Onde Orograph.  Cendres Volcan.







- Altitude de l'aérodrome : 239 ft
- Code IATA : VRN


LIPX - Villafranca Int. Verona

DERNIER METAR :
  • 170320Z 23005KT 5000 BR SCT030 SCT050 01/00 Q1018

METARs EXPIRÉS :
  • 170250Z 21005KT 5000 BR SCT030 SCT050 01/00 Q1018
  • 170220Z 21004KT 5000 BR SCT040 01/M00 Q1018
  • 170150Z 20003KT 5000 BR SCT040 01/M00 Q1018
  • 170120Z 19003KT 140V220 5000 BR BKN040 01/M00 Q1017
  • 170050Z 25002KT 5000 BR BKN040 01/M00 Q1017
  • 170020Z 21003KT 5000 BR BKN030 01/00 Q1017

TAF TAF LIPX
Valide du 17 à 03h jusqu'au 17 à 12h UTC


170200Z 1703/1712 VRB05KT 4000 BR BKN040
Pas de NOTAMs connus pour ce terrain.
1 SIGMET publié pour la FIR Milano (LIMM) :
 
Givrage fort
LIMM SIGMET 1 VALID 170115/170515 LIIP
LIMM MILANO FIR SEV ICE FCST WI N4448 E00911 - N4548 E00945 - N4501 E01255 - N4325 E01437 - N4339 E01215 - N4403 E01027 - N4448 E00911 ABV FL040 MOV E NC=



MET'MAP, la Météo Aéronautique d'un coup d'oeil ! - Copyright ORBIFLY Décembre 2007 - Disclaimer

ORBIFLY MET'MAP TEAM :

Programmation & Développement : Alexandra Zaïnal
Conception & Développement : Baudouin d'Aumeries
Co-Programmation & Développement : Marc-Olivier Méhu
Soutien technique & logistique : Manuel Goepfert

Contact : metmap@orbifly.com




SOURCES & CREDITS :

   NOAA